createdAt,value
2023-01-15T00:02:22.673Z,98978.25
2023-01-15T00:04:51.807Z,98969.38
2023-01-15T00:07:18.802Z,98968.56
2023-01-15T00:09:45.690Z,98977.53
2023-01-15T00:12:12.588Z,98973.75
2023-01-15T00:14:39.516Z,98977.69
2023-01-15T00:17:06.514Z,98967.94
2023-01-15T00:19:33.399Z,98966.31
2023-01-15T00:22:00.389Z,98950.28
2023-01-15T00:24:46.351Z,98951.75
2023-01-15T00:27:32.163Z,98954.47
2023-01-15T00:29:59.105Z,98953.75
2023-01-15T00:32:27.838Z,98937.44
2023-01-15T00:34:54.878Z,98928.03
2023-01-15T00:37:22.030Z,98937.78
2023-01-15T00:39:48.982Z,98917.97
2023-01-15T00:42:17.758Z,98914.66
2023-01-15T00:44:44.790Z,98918.50
2023-01-15T00:47:14.941Z,98905.94
2023-01-15T00:49:42.886Z,98909.72
2023-01-15T00:52:11.292Z,98897.81
2023-01-15T00:54:38.316Z,98890.81
2023-01-15T00:57:06.436Z,98877.53
2023-01-15T00:59:33.439Z,98894.56
2023-01-15T01:02:00.637Z,98889.03
2023-01-15T01:04:27.607Z,98880.56
2023-01-15T01:06:54.589Z,98890.34
2023-01-15T01:09:21.592Z,98878.97
2023-01-15T01:11:50.160Z,98864.63
2023-01-15T01:14:17.191Z,98880.94
2023-01-15T01:16:44.295Z,98880.75
2023-01-15T01:19:18.700Z,98877.72
2023-01-15T01:21:47.268Z,98870.47
2023-01-15T01:24:20.999Z,98870.16
2023-01-15T01:26:49.295Z,98862.03
2023-01-15T01:29:19.985Z,98857.03
2023-01-15T01:31:47.632Z,98863.03
2023-01-15T01:34:15.079Z,98866.63
2023-01-15T01:36:43.909Z,98867.88
2023-01-15T01:39:17.701Z,98862.84
2023-01-15T01:41:46.673Z,98855.41
2023-01-15T01:44:32.336Z,98866.50
2023-01-15T01:47:10.296Z,98868.03
2023-01-15T01:49:40.218Z,98866.25
2023-01-15T01:52:14.049Z,98856.03
2023-01-15T01:54:42.710Z,98854.69
2023-01-15T01:57:10.183Z,98878.16
2023-01-15T01:59:38.297Z,98870.81
2023-01-15T02:02:06.195Z,98860.75
2023-01-15T02:04:34.109Z,98860.13
2023-01-15T02:07:02.696Z,98857.81
2023-01-15T02:09:29.697Z,98841.13
2023-01-15T02:12:03.156Z,98838.63
2023-01-15T02:14:48.464Z,98845.53
2023-01-15T02:17:32.947Z,98827.31
2023-01-15T02:20:18.480Z,98824.81
2023-01-15T02:23:26.300Z,98816.03
2023-01-15T02:26:18.020Z,98798.25
2023-01-15T02:28:48.687Z,98798.81
2023-01-15T02:31:37.072Z,98806.31
2023-01-15T02:34:16.692Z,98805.31
2023-01-15T02:36:50.591Z,98814.91
2023-01-15T02:39:19.952Z,98814.66
2023-01-15T02:41:51.970Z,98812.47
2023-01-15T02:44:22.629Z,98812.78
2023-01-15T02:46:50.443Z,98822.09
2023-01-15T02:49:20.990Z,98817.00
2023-01-15T02:52:18.404Z,98824.34
2023-01-15T02:55:00.904Z,98825.78
2023-01-15T02:57:30.960Z,98819.97
2023-01-15T03:00:05.180Z,98826.97
2023-01-15T03:03:07.761Z,98833.50
2023-01-15T03:05:51.254Z,98844.50
2023-01-15T03:08:18.276Z,98846.25
2023-01-15T03:10:57.057Z,98873.31
2023-01-15T03:13:55.519Z,98875.47
2023-01-15T03:16:39.338Z,98889.84
2023-01-15T03:19:26.144Z,98903.19
2023-01-15T03:22:26.733Z,98928.75
2023-01-15T03:25:01.395Z,98912.69
2023-01-15T03:27:28.859Z,98938.75
2023-01-15T03:30:06.614Z,98933.69
2023-01-15T03:32:33.968Z,98934.03
2023-01-15T03:35:03.696Z,98931.41
2023-01-15T03:37:31.767Z,98932.16
2023-01-15T03:40:00.345Z,98939.84
2023-01-15T03:43:20.620Z,98930.44
2023-01-15T03:45:50.465Z,98933.50
2023-01-15T03:48:35.408Z,98923.16
2023-01-15T03:51:20.559Z,98926.09
2023-01-15T03:53:56.108Z,98941.41
2023-01-15T03:56:40.871Z,98940.44
2023-01-15T03:59:23.407Z,98944.09
2023-01-15T04:01:53.219Z,98936.97
2023-01-15T04:04:21.864Z,98942.78
2023-01-15T04:06:50.044Z,98941.34
2023-01-15T04:09:17.802Z,98940.53
2023-01-15T04:11:44.721Z,98944.84
2023-01-15T04:14:14.694Z,98940.28
2023-01-15T04:16:41.936Z,98939.19
2023-01-15T04:19:08.965Z,98946.16
2023-01-15T04:21:35.930Z,98959.13
2023-01-15T04:24:02.860Z,98958.69
2023-01-15T04:26:29.837Z,98971.19
2023-01-15T04:28:57.014Z,98976.38
2023-01-15T04:31:27.913Z,98975.41
2023-01-15T04:33:54.969Z,98971.84
2023-01-15T04:36:21.867Z,98973.78
2023-01-15T04:38:48.752Z,98988.06
2023-01-15T04:41:34.109Z,98983.53
2023-01-15T04:44:09.364Z,98995.22
2023-01-15T04:46:55.750Z,98994.22
2023-01-15T04:49:23.760Z,98984.03
2023-01-15T04:51:50.631Z,99002.69
2023-01-15T04:54:19.171Z,99001.88
2023-01-15T04:56:53.102Z,99007.72
2023-01-15T04:59:24.690Z,99018.25
2023-01-15T05:02:03.259Z,99022.63
2023-01-15T05:04:33.472Z,99025.88
2023-01-15T05:07:03.374Z,99027.66
2023-01-15T05:09:30.892Z,99027.50
2023-01-15T05:11:59.013Z,99041.44
2023-01-15T05:14:25.917Z,99058.41
2023-01-15T05:16:52.863Z,99044.47
2023-01-15T05:19:19.817Z,99038.00
2023-01-15T05:21:46.849Z,99028.09
2023-01-15T05:24:16.756Z,99019.19
2023-01-15T05:26:45.171Z,99035.69
2023-01-15T05:29:13.883Z,99045.41
2023-01-15T05:31:42.657Z,99052.84
2023-01-15T05:34:11.085Z,99064.66
2023-01-15T05:36:38.076Z,99074.81
2023-01-15T05:39:05.470Z,99075.91
2023-01-15T05:41:51.182Z,99090.78
2023-01-15T05:44:22.649Z,99073.94
2023-01-15T05:46:52.142Z,99090.41
2023-01-15T05:49:23.364Z,99064.34
2023-01-15T05:51:51.975Z,99053.00
2023-01-15T05:54:25.702Z,99063.66
2023-01-15T05:56:53.641Z,99058.69
2023-01-15T05:59:23.690Z,99059.63
2023-01-15T06:01:51.310Z,99082.72
2023-01-15T06:04:21.286Z,99086.94
2023-01-15T06:06:50.642Z,99090.75
2023-01-15T06:09:18.981Z,99093.34
2023-01-15T06:11:47.408Z,99106.28
2023-01-15T06:14:15.193Z,99108.88
2023-01-15T06:16:42.433Z,99121.31
2023-01-15T06:19:11.866Z,99122.44
2023-01-15T06:21:39.367Z,99125.66
2023-01-15T06:24:07.660Z,99124.81
2023-01-15T06:26:34.770Z,99139.09
2023-01-15T06:29:01.714Z,99143.06
2023-01-15T06:31:28.767Z,99140.28
2023-01-15T06:33:56.519Z,99143.03
2023-01-15T06:36:27.135Z,99155.19
2023-01-15T06:38:54.776Z,99167.63
2023-01-15T06:41:44.354Z,99167.63
2023-01-15T06:44:35.972Z,99163.72
2023-01-15T06:47:24.961Z,99183.00
2023-01-15T06:49:57.943Z,99181.44
2023-01-15T06:52:27.650Z,99183.28
2023-01-15T06:54:54.813Z,99195.25
2023-01-15T06:57:22.302Z,99201.47
2023-01-15T06:59:50.440Z,99196.69
2023-01-15T07:02:18.353Z,99219.81
2023-01-15T07:04:46.493Z,99218.63
2023-01-15T07:07:15.402Z,99229.09
2023-01-15T07:09:42.443Z,99233.78
2023-01-15T07:12:09.303Z,99242.25
2023-01-15T07:14:36.815Z,99245.66
2023-01-15T07:17:03.768Z,99241.69
2023-01-15T07:19:30.789Z,99252.53
2023-01-15T07:21:57.979Z,99254.31
2023-01-15T07:24:25.025Z,99253.66
2023-01-15T07:26:52.962Z,99248.75
2023-01-15T07:29:21.605Z,99258.81
2023-01-15T07:31:48.893Z,99265.91
2023-01-15T07:34:16.147Z,99262.50
2023-01-15T07:36:44.228Z,99289.69
2023-01-15T07:39:12.390Z,99287.09
2023-01-15T07:41:58.194Z,99299.59
2023-01-15T07:44:43.879Z,99291.53
2023-01-15T07:47:38.673Z,99294.25
2023-01-15T07:50:12.346Z,99300.41
2023-01-15T07:52:39.281Z,99307.28
2023-01-15T07:55:08.593Z,99313.84
2023-01-15T07:57:36.719Z,99329.75
2023-01-15T08:00:06.709Z,99328.44
2023-01-15T08:02:33.608Z,99326.78
2023-01-15T08:05:00.512Z,99333.31
2023-01-15T08:07:27.779Z,99344.97
2023-01-15T08:09:54.874Z,99342.03
2023-01-15T08:12:40.164Z,99340.72
2023-01-15T08:15:16.596Z,99355.97
2023-01-15T08:17:49.682Z,99352.41
2023-01-15T08:20:26.078Z,99352.97
2023-01-15T08:22:53.338Z,99345.09
2023-01-15T08:25:26.051Z,99340.63
2023-01-15T08:27:54.257Z,99353.44
2023-01-15T08:30:24.814Z,99355.97
2023-01-15T08:32:52.964Z,99369.28
2023-01-15T08:35:20.009Z,99370.41
2023-01-15T08:37:46.951Z,99371.47
2023-01-15T08:40:14.032Z,99374.78
2023-01-15T08:42:42.461Z,99367.78
2023-01-15T08:45:11.141Z,99365.47
2023-01-15T08:47:38.261Z,99365.19
2023-01-15T08:50:08.743Z,99376.19
2023-01-15T08:52:36.213Z,99372.59
2023-01-15T08:55:03.486Z,99381.50
2023-01-15T08:57:30.426Z,99373.94
2023-01-15T08:59:57.369Z,99391.31
2023-01-15T09:02:24.357Z,99402.69
2023-01-15T09:04:52.669Z,99411.03
2023-01-15T09:07:19.688Z,99416.56
2023-01-15T09:09:46.587Z,99424.59
2023-01-15T09:12:14.201Z,99432.88
2023-01-15T09:15:00.400Z,99432.34
2023-01-15T09:17:28.459Z,99428.66
2023-01-15T09:19:55.371Z,99434.56
2023-01-15T09:22:22.324Z,99429.53
2023-01-15T09:24:49.217Z,99444.69
2023-01-15T09:27:16.217Z,99456.28
2023-01-15T09:29:43.149Z,99469.13
2023-01-15T09:32:10.592Z,99466.34
2023-01-15T09:34:37.539Z,99469.34
2023-01-15T09:37:04.502Z,99478.06
2023-01-15T09:39:31.623Z,99486.66
2023-01-15T09:42:47.067Z,99485.16
2023-01-15T09:45:26.609Z,99499.84
2023-01-15T09:48:20.396Z,99495.34
2023-01-15T09:51:16.836Z,99503.66
2023-01-15T09:53:55.690Z,99510.47
2023-01-15T09:56:33.325Z,99520.66
2023-01-15T09:59:06.785Z,99531.81
2023-01-15T10:01:34.817Z,99530.72
2023-01-15T10:04:35.952Z,99545.13
2023-01-15T10:07:18.355Z,99553.84
2023-01-15T10:09:53.844Z,99549.63
2023-01-15T10:12:37.025Z,99552.34
2023-01-15T10:15:06.918Z,99549.34
2023-01-15T10:17:45.386Z,99550.44
2023-01-15T10:20:32.437Z,99555.44
2023-01-15T10:23:25.667Z,99559.28
2023-01-15T10:26:03.749Z,99562.00
2023-01-15T10:29:17.386Z,99550.16
2023-01-15T10:32:12.022Z,99529.63
2023-01-15T10:35:01.075Z,99528.84
2023-01-15T10:37:42.184Z,99529.06
2023-01-15T10:40:43.471Z,99537.13
2023-01-15T10:43:57.041Z,99540.63
2023-01-15T10:46:38.154Z,99539.81
2023-01-15T10:49:17.270Z,99542.00
2023-01-15T10:51:47.755Z,99530.41
2023-01-15T10:54:36.399Z,99530.19
2023-01-15T10:57:18.996Z,99537.78
2023-01-15T10:59:58.671Z,99534.38
2023-01-15T11:02:38.317Z,99526.78
2023-01-15T11:05:05.956Z,99528.69
2023-01-15T11:08:13.860Z,99520.25
2023-01-15T11:10:34.022Z,99530.84
2023-01-15T11:13:48.892Z,99549.31
2023-01-15T11:16:44.326Z,99535.16
2023-01-15T11:19:37.581Z,99545.09
2023-01-15T11:22:17.938Z,99560.44
2023-01-15T11:24:50.602Z,99564.28
2023-01-15T11:27:24.738Z,99572.97
2023-01-15T11:29:58.525Z,99564.66
2023-01-15T11:32:36.240Z,99564.47
2023-01-15T11:35:19.154Z,99566.88
2023-01-15T11:37:46.065Z,99571.03
2023-01-15T11:40:25.691Z,99563.44
2023-01-15T11:43:11.515Z,99573.66
2023-01-15T11:46:12.046Z,99582.28
2023-01-15T11:49:06.582Z,99583.91
2023-01-15T11:51:46.440Z,99585.84
2023-01-15T11:54:16.298Z,99586.69
2023-01-15T11:56:45.996Z,99585.88
2023-01-15T11:59:17.655Z,99590.03
2023-01-15T12:02:04.064Z,99598.59
2023-01-15T12:04:55.153Z,99588.53
2023-01-15T12:07:24.795Z,99598.38
2023-01-15T12:10:14.489Z,99585.19
2023-01-15T12:13:18.291Z,99592.47
2023-01-15T12:16:14.766Z,99580.19
2023-01-15T12:19:06.124Z,99584.88
2023-01-15T12:21:56.754Z,99581.75
2023-01-15T12:24:38.689Z,99587.13
2023-01-15T12:27:23.580Z,99587.94
2023-01-15T12:30:00.713Z,99583.44
2023-01-15T12:32:39.553Z,99590.56
2023-01-15T12:35:21.274Z,99567.44
2023-01-15T12:37:54.349Z,99574.09
2023-01-15T12:40:30.513Z,99574.91
2023-01-15T12:43:16.307Z,99562.13
2023-01-15T12:45:50.168Z,99560.13
2023-01-15T12:48:38.427Z,99546.50
2023-01-15T12:51:08.817Z,99534.66
2023-01-15T12:53:49.731Z,99533.31
2023-01-15T12:56:20.853Z,99535.22
2023-01-15T12:59:21.245Z,99531.81
2023-01-15T13:02:24.319Z,99538.47
2023-01-15T13:05:16.445Z,99532.34
2023-01-15T13:08:11.711Z,99521.34
2023-01-15T13:10:41.779Z,99530.56
2023-01-15T13:13:25.166Z,99515.88
2023-01-15T13:16:04.202Z,99526.22
2023-01-15T13:19:11.673Z,99536.44
2023-01-15T13:21:40.479Z,99530.72
2023-01-15T13:24:50.008Z,99537.94
2023-01-15T13:28:09.936Z,99549.06
2023-01-15T13:30:49.203Z,99534.25
2023-01-15T13:33:16.075Z,99535.69
2023-01-15T13:35:55.076Z,99543.31
2023-01-15T13:38:27.298Z,99528.34
2023-01-15T13:40:57.058Z,99528.06
2023-01-15T13:43:39.303Z,99541.22
2023-01-15T13:46:13.828Z,99542.47
2023-01-15T13:48:49.814Z,99551.66
2023-01-15T13:51:27.723Z,99550.75
2023-01-15T13:53:56.659Z,99563.16
2023-01-15T13:56:30.986Z,99553.34
2023-01-15T13:59:01.330Z,99557.16
2023-01-15T14:01:31.369Z,99545.00
2023-01-15T14:04:12.192Z,99540.47
2023-01-15T14:06:51.785Z,99542.91
2023-01-15T14:09:24.503Z,99536.25
2023-01-15T14:12:06.898Z,99551.09
2023-01-15T14:15:17.966Z,99552.06
2023-01-15T14:17:57.683Z,99556.97
2023-01-15T14:20:46.215Z,99580.75
2023-01-15T14:23:43.789Z,99592.88
2023-01-15T14:26:24.944Z,99589.47
2023-01-15T14:29:13.864Z,99602.38
2023-01-15T14:32:25.033Z,99613.56
2023-01-15T14:35:01.260Z,99614.63
2023-01-15T14:37:52.175Z,99601.03
2023-01-15T14:40:21.598Z,99584.19
2023-01-15T14:43:04.643Z,99578.19
2023-01-15T14:45:37.323Z,99558.47
2023-01-15T14:48:28.705Z,99559.94
2023-01-15T14:51:13.682Z,99570.28
2023-01-15T14:53:57.582Z,99579.25
2023-01-15T14:56:34.990Z,99578.16
2023-01-15T14:59:22.180Z,99576.00
2023-01-15T15:01:49.618Z,99586.88
2023-01-15T15:04:45.356Z,99590.69
2023-01-15T15:07:18.889Z,99599.97
2023-01-15T15:09:49.138Z,99585.00
2023-01-15T15:13:13.210Z,99601.03
2023-01-15T15:16:11.837Z,99586.06
2023-01-15T15:18:58.423Z,99574.47
2023-01-15T15:21:47.067Z,99575.84
2023-01-15T15:24:26.004Z,99569.19
2023-01-15T15:26:53.030Z,99571.34
2023-01-15T15:29:22.244Z,99568.63
2023-01-15T15:31:57.171Z,99570.81
2023-01-15T15:34:34.516Z,99580.34
2023-01-15T15:37:28.179Z,99576.53
2023-01-15T15:40:14.158Z,99582.38
2023-01-15T15:43:30.494Z,99580.34
2023-01-15T15:46:16.948Z,99567.53
2023-01-15T15:48:53.407Z,99570.53
2023-01-15T15:51:40.007Z,99565.66
2023-01-15T15:54:28.444Z,99561.84
2023-01-15T15:57:17.376Z,99553.41
2023-01-15T15:59:53.075Z,99553.69
2023-01-15T16:02:37.935Z,99549.31
2023-01-15T16:05:22.480Z,99552.59
2023-01-15T16:07:49.934Z,99550.00
2023-01-15T16:10:32.293Z,99537.59
2023-01-15T16:13:03.789Z,99529.69
2023-01-15T16:15:36.572Z,99522.09
2023-01-15T16:18:05.831Z,99520.03
2023-01-15T16:20:33.505Z,99528.75
2023-01-15T16:23:05.363Z,99529.16
2023-01-15T16:25:40.318Z,99526.44
2023-01-15T16:28:22.959Z,99511.72
2023-01-15T16:30:57.404Z,99522.88
2023-01-15T16:33:24.708Z,99512.81
2023-01-15T16:35:59.858Z,99513.75
2023-01-15T16:38:27.261Z,99515.16
2023-01-15T16:40:54.349Z,99514.19
2023-01-15T16:43:26.086Z,99521.81
2023-01-15T16:45:56.003Z,99522.22
2023-01-15T16:48:38.540Z,99511.38
2023-01-15T16:51:27.194Z,99509.31
2023-01-15T16:53:54.246Z,99506.97
2023-01-15T16:56:53.480Z,99500.38
2023-01-15T16:59:29.989Z,99508.09
2023-01-15T17:02:20.322Z,99512.19
2023-01-15T17:04:48.512Z,99511.09
2023-01-15T17:07:18.428Z,99521.72
2023-01-15T17:09:52.140Z,99506.63
2023-01-15T17:12:39.621Z,99509.63
2023-01-15T17:15:16.049Z,99520.53
2023-01-15T17:17:48.477Z,99517.25
2023-01-15T17:20:19.151Z,99520.94
2023-01-15T17:22:49.517Z,99515.34
2023-01-15T17:25:33.381Z,99521.09
2023-01-15T17:28:02.636Z,99518.34
2023-01-15T17:30:31.636Z,99526.78
2023-01-15T17:33:00.064Z,99518.50
2023-01-15T17:35:37.220Z,99508.84
2023-01-15T17:38:06.791Z,99527.59
2023-01-15T17:40:33.917Z,99524.75
2023-01-15T17:43:01.876Z,99523.38
2023-01-15T17:45:32.366Z,99514.00
2023-01-15T17:48:01.571Z,99511.56
2023-01-15T17:50:28.939Z,99502.31
2023-01-15T17:52:56.007Z,99497.97
2023-01-15T17:55:42.321Z,99495.38
2023-01-15T17:58:31.285Z,99507.63
2023-01-15T18:01:17.800Z,99490.34
2023-01-15T18:04:09.561Z,99486.69
2023-01-15T18:06:37.214Z,99498.91
2023-01-15T18:09:07.410Z,99490.34
2023-01-15T18:11:34.382Z,99482.19
2023-01-15T18:14:01.367Z,99491.03
2023-01-15T18:16:28.848Z,99506.66
2023-01-15T18:18:56.175Z,99494.69
2023-01-15T18:21:23.271Z,99504.75
2023-01-15T18:23:50.301Z,99490.06
2023-01-15T18:26:17.160Z,99488.72
2023-01-15T18:28:46.334Z,99470.94
2023-01-15T18:31:13.348Z,99479.75
2023-01-15T18:33:40.319Z,99471.59
2023-01-15T18:36:11.558Z,99474.44
2023-01-15T18:38:43.627Z,99471.31
2023-01-15T18:41:51.851Z,99455.69
2023-01-15T18:44:40.317Z,99457.88
2023-01-15T18:47:12.272Z,99452.84
2023-01-15T18:49:41.715Z,99455.97
2023-01-15T18:52:29.319Z,99458.00
2023-01-15T18:54:56.518Z,99461.56
2023-01-15T18:57:24.281Z,99467.81
2023-01-15T18:59:51.827Z,99466.28
2023-01-15T19:02:21.059Z,99463.72
2023-01-15T19:04:48.862Z,99458.00
2023-01-15T19:07:16.391Z,99453.94
2023-01-15T19:09:43.340Z,99454.47
2023-01-15T19:12:11.968Z,99442.09
2023-01-15T19:14:57.343Z,99430.00
2023-01-15T19:17:44.401Z,99422.53
2023-01-15T19:20:14.355Z,99402.44
2023-01-15T19:22:59.168Z,99408.00
2023-01-15T19:25:38.129Z,99402.81
2023-01-15T19:28:07.915Z,99406.66
2023-01-15T19:30:38.772Z,99392.06
2023-01-15T19:33:07.263Z,99387.19
2023-01-15T19:35:35.662Z,99382.97
2023-01-15T19:38:03.449Z,99375.66
2023-01-15T19:40:32.668Z,99370.22
2023-01-15T19:43:17.860Z,99362.59
2023-01-15T19:46:04.201Z,99355.66
2023-01-15T19:48:56.468Z,99348.22
2023-01-15T19:51:23.402Z,99350.94
2023-01-15T19:53:50.314Z,99337.47
2023-01-15T19:56:17.407Z,99335.44
2023-01-15T19:58:44.448Z,99323.22
2023-01-15T20:01:18.034Z,99303.94
2023-01-15T20:03:46.612Z,99312.34
2023-01-15T20:06:13.718Z,99311.13
2023-01-15T20:08:40.606Z,99298.59
2023-01-15T20:11:09.652Z,99306.91
2023-01-15T20:13:54.387Z,99293.03
2023-01-15T20:16:22.651Z,99302.19
2023-01-15T20:18:51.037Z,99298.72
2023-01-15T20:21:18.660Z,99307.72
2023-01-15T20:23:45.727Z,99285.97
2023-01-15T20:26:15.015Z,99307.78
2023-01-15T20:28:43.059Z,99289.63
2023-01-15T20:31:18.776Z,99292.63
2023-01-15T20:33:46.712Z,99295.47
2023-01-15T20:36:14.056Z,99302.03
2023-01-15T20:38:40.994Z,99292.22
2023-01-15T20:41:30.405Z,99294.97
2023-01-15T20:44:15.788Z,99300.78
2023-01-15T20:46:42.877Z,99282.13
2023-01-15T20:49:26.935Z,99279.47
2023-01-15T20:51:55.025Z,99290.19
2023-01-15T20:54:23.152Z,99288.72
2023-01-15T20:56:50.040Z,99301.09
2023-01-15T20:59:17.027Z,99303.28
2023-01-15T21:01:44.092Z,99315.91
2023-01-15T21:04:13.535Z,99304.19
2023-01-15T21:06:40.559Z,99311.00
2023-01-15T21:09:07.520Z,99307.22
2023-01-15T21:11:34.744Z,99303.28
2023-01-15T21:14:01.896Z,99294.50
2023-01-15T21:16:28.833Z,99290.50
2023-01-15T21:18:56.312Z,99281.41
2023-01-15T21:21:23.250Z,99272.34
2023-01-15T21:23:50.346Z,99265.66
2023-01-15T21:26:17.658Z,99264.47
2023-01-15T21:28:44.751Z,99265.41
2023-01-15T21:31:13.288Z,99266.66
2023-01-15T21:33:40.429Z,99263.25
2023-01-15T21:36:09.606Z,99250.47
2023-01-15T21:38:36.585Z,99259.72
2023-01-15T21:41:14.418Z,99260.81
2023-01-15T21:44:01.729Z,99260.28
2023-01-15T21:46:29.416Z,99257.00
2023-01-15T21:48:58.269Z,99245.19
2023-01-15T21:51:26.715Z,99241.38
2023-01-15T21:53:53.816Z,99228.38
2023-01-15T21:56:20.836Z,99227.72
2023-01-15T21:58:47.908Z,99231.75
2023-01-15T22:01:18.219Z,99223.34
2023-01-15T22:03:46.092Z,99225.25
2023-01-15T22:06:13.435Z,99211.53
2023-01-15T22:08:40.458Z,99208.94
2023-01-15T22:11:10.121Z,99203.94
2023-01-15T22:13:38.300Z,99192.66
2023-01-15T22:16:05.888Z,99197.28
2023-01-15T22:18:34.079Z,99196.47
2023-01-15T22:21:07.091Z,99190.75
2023-01-15T22:23:34.946Z,99188.88
2023-01-15T22:26:02.251Z,99189.53
2023-01-15T22:28:29.149Z,99180.66
2023-01-15T22:30:56.147Z,99186.44
2023-01-15T22:33:23.557Z,99181.53
2023-01-15T22:35:58.795Z,99165.78
2023-01-15T22:38:26.293Z,99164.16
2023-01-15T22:40:53.454Z,99167.16
2023-01-15T22:43:20.589Z,99158.19
2023-01-15T22:45:47.619Z,99161.72
2023-01-15T22:48:14.573Z,99164.00
2023-01-15T22:50:41.584Z,99161.88
2023-01-15T22:53:08.491Z,99158.19
2023-01-15T22:55:36.334Z,99155.75
2023-01-15T22:58:03.235Z,99155.75
2023-01-15T23:00:30.169Z,99150.00
2023-01-15T23:03:05.014Z,99137.47
2023-01-15T23:05:37.217Z,99126.00
2023-01-15T23:08:04.169Z,99123.69
2023-01-15T23:10:31.156Z,99122.38
2023-01-15T23:12:58.066Z,99120.28
2023-01-15T23:15:25.071Z,99106.59
2023-01-15T23:17:51.994Z,99099.25
2023-01-15T23:20:18.937Z,99095.66
2023-01-15T23:22:45.830Z,99094.06
2023-01-15T23:25:12.813Z,99096.91
2023-01-15T23:27:39.840Z,99095.56
2023-01-15T23:30:07.849Z,99101.22
2023-01-15T23:32:34.930Z,99094.19
2023-01-15T23:35:01.839Z,99086.34
2023-01-15T23:37:28.741Z,99090.78
2023-01-15T23:39:55.749Z,99076.84
2023-01-15T23:42:44.574Z,99082.59
2023-01-15T23:45:37.666Z,99075.66
2023-01-15T23:48:05.560Z,99070.94
2023-01-15T23:50:32.539Z,99080.69
2023-01-15T23:52:59.462Z,99069.56
2023-01-15T23:55:26.457Z,99063.72
2023-01-15T23:57:53.408Z,99060.19
